Latest Coastal Weather Observations for Moorabbin Airport

IDV60701

Issued at 7:52 pm EST Monday 4 May 2026 (issued every 10 minutes, with the page automatically refreshed every 10 minutes)

About coastal observations | Map of coastal stations | Coastal observations for VIC | Marine services | Other Formats
Station Details ID: 086077 Name: MOORABBIN AIRPORT Lat: -37.98 Lon: 145.10 Height: 12.1 m
Data from the previous 72 hours. | See also: Recent months at Moorabbin Airport
Date/Time
EST
Wind Sea
Height
m
Swell Vis
km
Cloud Weather Temp
°C
Press
MSL
hPa
Rain since
9am
mm
Dir  Spd
kts
Gust
kts
Height
m
Period
s
Dir
04/07:30pm N 16 21 - - - - 10 Cloudy - 15.6 1010.9 0.0
04/07:00pm N 15 19 - - - - 10 Partly cloudy - 15.3 1010.7 0.0
04/06:30pm N 17 24 - - - - 10 Mostly clear - 15.0 1010.2 0.0
04/06:00pm N 17 23 - - - - 10 Cloudy Rain 15.4 1009.9 0.0
04/05:30pm N 18 27 - - - - 10 Mostly clear - 15.8 1009.5 0.0
04/05:11pm N 20 30 - - - - 10 Partly cloudy - 15.5 1009.4 0.0
04/05:00pm N 22 29 - - - - 10 Partly cloudy - 16.1 1009.3 0.0
04/04:33pm N 20 30 - - - - 10 - - 17.1 1008.9 0.0
04/04:30pm N 20 29 - - - - 10 - - 17.1 1008.9 0.0
04/04:00pm N 21 31 - - - - 10 Mostly clear - 17.9 1008.6 0.0
04/03:33pm N 19 30 - - - - 10 Mostly clear - 17.6 1008.7 0.0
04/03:30pm N 20 28 - - - - 10 - - 17.9 1008.9 0.0
04/03:01pm N 21 31 - - - - 10 Partly cloudy - 18.7 1008.7 0.0
04/03:00pm N 22 31 - - - - 10 Partly cloudy - 18.7 1008.7 0.0
04/02:30pm N 20 33 - - - - 10 - - 17.9 1008.7 0.0
04/02:24pm N 22 32 - - - - 10 - - 19.0 1008.7 0.0
04/02:00pm N 22 30 - - - - 10 Mostly clear - 18.5 1008.7 0.0
04/01:32pm N 19 29 - - - - 10 Partly cloudy - 19.1 1009.0 0.0
04/01:30pm N 21 29 - - - - 10 Partly cloudy - 18.7 1008.9 0.0
04/01:03pm N 19 30 - - - - 10 Partly cloudy - 17.9 1009.3 0.0
04/01:00pm N 19 27 - - - - 10 Partly cloudy - 18.3 1009.4 0.0
04/12:32pm NNW 20 30 - - - - 10 Mostly clear - 17.6 1009.7 0.0
04/12:30pm NNW 21 30 - - - - 10 Partly cloudy - 17.9 1009.7 0.0
04/12:01pm N 23 33 - - - - 10 Partly cloudy - 18.1 1010.2 0.0
04/12:00pm N 24 33 - - - - 10 Cloudy - 17.7 1010.2 0.0
04/11:32am N 18 28 - - - - 10 Partly cloudy - 16.9 1010.6 0.0
04/11:30am N 18 27 - - - - 10 Partly cloudy - 17.5 1010.7 0.0
04/11:12am N 19 31 - - - - 10 Partly cloudy - 17.5 1010.6 0.0
04/11:00am N 21 29 - - - - 10 Partly cloudy - 17.1 1010.7 0.0
04/10:30am N 17 27 - - - - 10 Mostly clear - 17.5 1010.6 0.0
04/10:28am NNW 17 27 - - - - 10 Mostly clear - 17.3 1010.7 0.0
04/10:00am N 20 29 - - - - 10 - - 16.7 1010.6 0.0
04/09:30am N 19 25 - - - - 10 - - 16.5 1010.7 0.0
04/09:00am N 17 24 - - - - 10 - - 15.9 1011.0 7.6
04/08:30am N 12 17 - - - - 10 - - 15.2 1011.1 7.6
04/08:00am N 11 13 - - - - 10 - - 14.3 1011.2 7.6
04/07:30am N 11 14 - - - - 10 - - 13.5 1011.1 7.6
04/07:00am N 11 13 - - - - 10 Partly cloudy - 13.3 1011.0 7.6
04/06:30am N 10 13 - - - - 10 Partly cloudy - 13.6 1010.8 7.6
04/06:00am N 6 7 - - - - 10 - - 12.4 1010.8 7.6
04/05:30am N 9 13 - - - - 10 - - 12.7 1010.8 7.6
04/05:00am N 10 14 - - - - 10 - - 13.0 1011.1 7.6
04/04:30am N 9 12 - - - - 10 - - 13.1 1011.3 7.6
04/04:00am N 10 13 - - - - 10 - - 13.1 1011.5 7.6
04/03:30am N 9 12 - - - - 10 - - 12.7 1011.7 7.6
04/03:00am NNE 7 9 - - - - 10 - - 12.7 1011.8 7.6
04/02:30am N 9 11 - - - - 10 - - 12.9 1012.0 7.6
04/02:00am N 10 13 - - - - 10 - - 13.4 1012.0 7.6
04/01:30am N 11 14 - - - - 10 - - 13.9 1012.0 7.6
04/01:00am N 13 17 - - - - 10 - - 14.3 1011.9 7.6
04/12:30am N 10 13 - - - - 10 - - 14.0 1012.1 7.6
04/12:00am N 12 16 - - - - 10 - - 14.7 1012.0 7.6
 
Date/Time
EST
Wind Sea
Height
m
Swell Vis
km
Cloud Weather Temp
°C
Press
MSL
hPa
Rain since
9am
mm
Dir  Spd
kts
Gust
kts
Height
m
Period
s
Dir
03/11:30pm N 14 19 - - - - 10 - - 15.2 1011.9 7.6
03/11:00pm N 11 13 - - - - 10 - - 14.9 1012.2 7.6
03/10:30pm N 11 16 - - - - 10 - - 15.2 1012.5 7.6
03/10:00pm N 11 14 - - - - 10 - - 15.3 1012.8 7.6
03/09:30pm N 10 13 - - - - 10 - - 15.2 1013.1 7.6
03/09:00pm N 11 14 - - - - 10 Cloudy - 15.4 1012.7 7.6
03/08:30pm N 11 13 - - - - 10 - - 15.1 1013.1 7.6
03/08:00pm N 9 13 - - - - 10 - - 15.1 1013.0 7.6
03/07:30pm N 9 13 - - - - 10 - - 15.5 1012.8 7.6
03/07:00pm NNW 9 14 - - - - 10 - - 15.7 1012.1 7.6
03/06:30pm NNW 5 7 - - - - 10 - - 14.3 1011.2 7.6
03/06:00pm NW 4 5 - - - - 10 - - 15.7 1011.1 7.6
03/05:30pm NW 8 11 - - - - 10 - - 17.1 1010.9 7.6
03/05:00pm NNW 7 9 - - - - 10 Mostly clear - 18.2 1010.6 7.6
03/04:30pm NNW 8 11 - - - - 10 Partly cloudy - 18.4 1010.2 7.6
03/04:00pm NNW 8 11 - - - - 10 Partly cloudy - 17.9 1010.2 7.6
03/03:30pm NNW 7 11 - - - - 10 Mostly clear - 17.4 1010.4 7.6
03/03:00pm NNW 8 12 - - - - 10 Cloudy Rain 17.7 1010.3 7.4
03/02:30pm NNW 15 23 - - - - 7 Mostly clear - 17.5 1010.1 7.4
03/02:00pm N 13 17 - - - - 10 Partly cloudy - 19.4 1009.7 6.4
03/01:30pm N 14 20 - - - - 10 Partly cloudy - 20.3 1009.7 6.4
03/01:01pm N 16 26 - - - - 10 Partly cloudy - 20.3 1010.0 6.4
03/01:00pm N 17 26 - - - - 10 Partly cloudy - 20.3 1010.0 6.4
03/12:30pm N 14 21 - - - - 10 - - 20.3 1010.1 6.4
03/12:00pm NNW 12 16 - - - - 10 Cloudy Rain 19.2 1010.3 6.4
03/11:47am N 13 23 - - - - 10 Mostly clear - 18.2 1010.1 6.4
03/11:30am NNE 20 35 - - - - 10 Cloudy - 18.1 1009.3 6.2
03/11:21am NNE 18 29 - - - - 10 Cloudy - 17.9 1009.8 5.8
03/11:00am NNE 15 21 - - - - 10 Mostly clear - 18.1 1010.4 4.6
03/10:30am NNE 14 19 - - - - 10 Partly cloudy - 18.2 1010.9 3.2
03/10:00am N 18 26 - - - - 10 Mostly clear - 18.6 1011.2 1.4
03/09:30am N 19 26 - - - - 10 Partly cloudy - 20.7 1010.4 0.0
03/09:17am N 19 29 - - - - 10 Partly cloudy - 20.8 1011.1 0.0
03/09:00am N 18 25 - - - - 10 Mostly cloudy - 20.7 1011.0 0.0
03/08:30am NNE 18 25 - - - - 10 Mostly clear - 20.4 1010.3 0.0
03/08:00am N 17 25 - - - - 10 - - 19.6 1011.2 0.0
03/07:53am N 15 25 - - - - 10 - - 19.5 1011.4 0.0
03/07:30am N 15 19 - - - - 10 Mostly clear - 19.2 1011.4 0.0
03/07:00am N 18 26 - - - - 10 Partly cloudy - 19.6 1011.4 0.0
03/06:30am N 21 29 - - - - 10 Mostly clear - 19.5 1012.0 0.0
03/06:00am N 19 27 - - - - 10 Cloudy Rain 20.7 1011.8 0.0
03/05:34am N 18 28 - - - - 10 Cloudy - 20.8 1011.9 0.0
03/05:30am N 19 28 - - - - 10 Cloudy - 21.0 1011.9 0.0
03/05:00am N 18 26 - - - - 10 Partly cloudy - 21.3 1011.5 0.0
03/04:30am N 17 24 - - - - 10 Partly cloudy - 21.8 1011.3 0.0
03/04:00am N 12 17 - - - - 10 Partly cloudy - 21.5 1011.9 0.0
03/03:30am N 13 18 - - - - 10 Partly cloudy - 21.9 1012.2 0.0
03/03:00am N 7 8 - - - - 10 Cloudy - 20.2 1012.4 0.0
03/02:30am NNE 6 7 - - - - 10 Cloudy - 20.4 1012.6 0.0
03/02:00am NNE 7 11 - - - - 10 Partly cloudy - 20.6 1012.8 0.0
03/01:30am NNE 6 9 - - - - 10 - - 19.9 1013.0 0.0
03/01:00am N 1 5 - - - - 10 - - 19.6 1013.1 0.0
03/12:30am N 5 7 - - - - 10 - - 20.1 1013.4 0.0
03/12:00am NNW 7 8 - - - - 10 Cloudy - 21.2 1013.6 0.0
 
Date/Time
EST
Wind Sea
Height
m
Swell Vis
km
Cloud Weather Temp
°C
Press
MSL
hPa
Rain since
9am
mm
Dir  Spd
kts
Gust
kts
Height
m
Period
s
Dir
02/11:30pm N 7 10 - - - - 10 Mostly clear - 21.6 1013.9 0.0
02/11:00pm N 10 14 - - - - 10 - - 22.0 1014.0 0.0
02/10:30pm NNW 5 8 - - - - 10 Mostly clear - 21.8 1014.3 0.0
02/10:00pm N 7 9 - - - - 10 - - 22.0 1014.4 0.0
02/09:30pm NNE 7 9 - - - - 10 Partly cloudy - 21.2 1014.3 0.0
02/09:00pm NE 7 9 - - - - 10 Cloudy - 21.4 1014.5 0.0
02/08:30pm NE 7 10 - - - - 10 - - 21.7 1014.5 0.0
02/08:00pm NNE 8 10 - - - - 10 Mostly clear - 21.4 1014.6 0.0
02/07:30pm NNE 8 11 - - - - 10 Cloudy - 22.4 1014.7 0.0
02/07:00pm NNE 9 13 - - - - 10 Cloudy - 22.9 1014.8 0.0
02/06:30pm NNE 7 9 - - - - 10 Cloudy - 22.9 1014.6 0.0
02/06:00pm NNE 8 11 - - - - 10 Cloudy - 22.8 1014.7 0.0
02/05:30pm N 11 17 - - - - 10 - - 23.7 1014.5 0.0
02/05:00pm NNE 14 19 - - - - 10 - - 24.2 1014.2 0.0
02/04:30pm N 16 22 - - - - 10 - - 24.3 1014.2 0.0
02/04:00pm N 13 18 - - - - 10 - - 24.4 1014.3 0.0
02/03:30pm N 15 20 - - - - 10 - - 24.5 1014.6 0.0
02/03:00pm N 16 22 - - - - 10 Partly cloudy - 24.2 1014.7 0.0
02/02:30pm NNE 13 18 - - - - 10 - - 24.0 1015.0 0.0
02/02:00pm NNE 10 15 - - - - 10 - - 23.4 1015.4 0.0
02/01:30pm NNE 12 19 - - - - 10 - - 23.3 1015.9 0.0
02/01:00pm NNE 10 13 - - - - 10 Mostly clear - 23.2 1016.5 0.0
02/12:30pm NNE 12 18 - - - - 10 - - 22.9 1017.1 0.0
02/12:00pm NNE 16 22 - - - - 10 Partly cloudy - 22.3 1017.5 0.0
02/11:30am NNE 15 19 - - - - 10 Mostly clear - 22.2 1017.9 0.0
02/11:00am NNE 14 21 - - - - 10 Partly cloudy - 21.8 1018.5 0.0
02/10:30am NNE 13 16 - - - - 10 Cloudy - 21.5 1018.8 0.0
02/10:00am NNE 13 16 - - - - 10 Cloudy - 21.1 1019.0 0.0
02/09:30am NNE 11 15 - - - - 10 Cloudy - 20.9 1019.2 0.0
02/09:00am NNE 9 12 - - - - 10 Partly cloudy - 20.4 1019.3 0.0
02/08:30am NNE 9 12 - - - - 10 Partly cloudy - 19.8 1019.2 0.0
02/08:00am NE 9 10 - - - - 10 Cloudy - 19.2 1019.2 0.0
02/07:30am NNE 9 11 - - - - 10 Cloudy - 18.9 1018.9 0.0
02/07:00am NE 8 9 - - - - 10 Cloudy - 18.1 1018.7 0.0
02/06:30am NE 8 11 - - - - 10 Cloudy - 18.5 1018.7 0.0
02/06:00am NE 9 11 - - - - 10 Cloudy - 17.9 1018.6 0.0
02/05:30am NE 8 10 - - - - 10 - - 17.7 1018.8 0.0
02/05:00am NNE 7 9 - - - - 10 - - 17.6 1018.8 0.0
02/04:30am NNE 8 9 - - - - 10 - - 18.1 1018.9 0.0
02/04:00am NNE 7 9 - - - - 10 - - 18.1 1019.0 0.0
02/03:30am NNE 7 9 - - - - 10 - - 18.0 1019.0 0.0
02/03:00am NNE 6 8 - - - - 10 Mostly clear - 18.3 1019.1 0.0
02/02:30am NNE 6 8 - - - - 10 - - 17.4 1019.4 0.0
02/02:00am NNE 7 9 - - - - 10 - - 18.2 1019.8 0.0
02/01:30am NNE 7 10 - - - - 10 - - 18.4 1019.9 0.0
02/01:00am NNE 7 8 - - - - 10 - - 18.2 1020.2 0.0
02/12:30am NNE 8 10 - - - - 10 - - 19.4 1020.4 0.0
02/12:00am NNE 9 11 - - - - 10 Cloudy - 20.2 1020.7 0.0
 
Date/Time
EST
Wind Sea
Height
m
Swell Vis
km
Cloud Weather Temp
°C
Press
MSL
hPa
Rain since
9am
mm
Dir  Spd
kts
Gust
kts
Height
m
Period
s
Dir
01/11:30pm NNE 9 12 - - - - 10 - - 20.5 1021.0 0.0
01/11:00pm NNE 8 11 - - - - 10 - - 20.5 1021.3 0.0
01/10:30pm NE 8 10 - - - - 10 - - 20.4 1021.6 0.0
01/10:00pm NE 9 11 - - - - 10 - - 21.2 1021.8 0.0
01/09:30pm NE 10 14 - - - - 10 - - 21.5 1021.7 0.0
01/09:00pm NE 9 11 - - - - 10 - - 21.4 1021.8 0.0
01/08:30pm NE 9 11 - - - - 10 - - 21.4 1021.8 0.0
01/08:00pm NNE 8 10 - - - - 10 - - 21.3 1021.7 0.0

Other formats

Comma delimited format used in spreadsheet applications
http://www.bom.gov.au/fwo/IDV60701/IDV60701.94870.axf

JavaScript Object Notation format (JSON) in row-major order
http://www.bom.gov.au/fwo/IDV60701/IDV60701.94870.json

Data quality

Most of these data are generated automatically and are frequently updated. Quality checks on data are not normally performed. It is possible for incorrect values to appear. Refer to information at About Latest Weather Observations and please check the disclaimer before using these data.